sensor_id;sensor_type;location;lat;lon;timestamp;temperature;humidity
24836;DHT22;12915;57.650;12.044;2023-12-20T00:01:02;4.80;99.90
24836;DHT22;12915;57.650;12.044;2023-12-20T00:03:28;4.90;99.90
24836;DHT22;12915;57.650;12.044;2023-12-20T00:05:53;5.00;99.90
24836;DHT22;12915;57.650;12.044;2023-12-20T00:08:19;4.80;99.90
24836;DHT22;12915;57.650;12.044;2023-12-20T00:10:44;4.90;99.90
24836;DHT22;12915;57.650;12.044;2023-12-20T00:13:10;5.00;99.90
24836;DHT22;12915;57.650;12.044;2023-12-20T00:15:36;5.20;99.90
24836;DHT22;12915;57.650;12.044;2023-12-20T00:18:02;5.20;99.90
24836;DHT22;12915;57.650;12.044;2023-12-20T00:20:28;5.20;99.90
24836;DHT22;12915;57.650;12.044;2023-12-20T00:22:57;5.10;99.90
24836;DHT22;12915;57.650;12.044;2023-12-20T00:25:24;5.00;99.90
24836;DHT22;12915;57.650;12.044;2023-12-20T00:27:50;4.90;99.90
24836;DHT22;12915;57.650;12.044;2023-12-20T00:30:15;5.00;99.90
24836;DHT22;12915;57.650;12.044;2023-12-20T00:32:41;5.00;99.90
24836;DHT22;12915;57.650;12.044;2023-12-20T00:35:15;5.00;99.90
24836;DHT22;12915;57.650;12.044;2023-12-20T00:37:42;5.10;99.90
24836;DHT22;12915;57.650;12.044;2023-12-20T00:40:08;5.00;99.90
24836;DHT22;12915;57.650;12.044;2023-12-20T00:42:35;5.00;99.90
24836;DHT22;12915;57.650;12.044;2023-12-20T00:45:01;4.90;99.90
24836;DHT22;12915;57.650;12.044;2023-12-20T00:47:28;4.90;99.90
24836;DHT22;12915;57.650;12.044;2023-12-20T00:49:53;4.90;99.90
24836;DHT22;12915;57.650;12.044;2023-12-20T00:52:19;4.90;99.90
24836;DHT22;12915;57.650;12.044;2023-12-20T00:54:45;5.00;99.90
24836;DHT22;12915;57.650;12.044;2023-12-20T00:57:11;4.90;99.90
24836;DHT22;12915;57.650;12.044;2023-12-20T00:59:37;5.00;99.90
24836;DHT22;12915;57.650;12.044;2023-12-20T01:02:04;4.90;99.90
24836;DHT22;12915;57.650;12.044;2023-12-20T01:04:31;4.90;99.90
24836;DHT22;12915;57.650;12.044;2023-12-20T01:06:57;4.90;99.90
24836;DHT22;12915;57.650;12.044;2023-12-20T01:09:23;4.80;99.90
24836;DHT22;12915;57.650;12.044;2023-12-20T01:11:52;4.70;99.90
24836;DHT22;12915;57.650;12.044;2023-12-20T01:14:18;4.70;99.90
24836;DHT22;12915;57.650;12.044;2023-12-20T01:16:43;4.60;99.90
24836;DHT22;12915;57.650;12.044;2023-12-20T01:19:10;4.70;99.90
24836;DHT22;12915;57.650;12.044;2023-12-20T01:21:35;4.70;99.90
24836;DHT22;12915;57.650;12.044;2023-12-20T01:24:01;4.90;99.90
24836;DHT22;12915;57.650;12.044;2023-12-20T01:26:27;4.80;99.90
24836;DHT22;12915;57.650;12.044;2023-12-20T01:28:53;5.00;99.90
24836;DHT22;12915;57.650;12.044;2023-12-20T01:31:18;5.10;99.90
24836;DHT22;12915;57.650;12.044;2023-12-20T01:33:44;5.10;99.90
24836;DHT22;12915;57.650;12.044;2023-12-20T01:36:10;5.20;99.90
24836;DHT22;12915;57.650;12.044;2023-12-20T01:38:36;5.40;99.90
24836;DHT22;12915;57.650;12.044;2023-12-20T01:41:02;5.40;99.90
24836;DHT22;12915;57.650;12.044;2023-12-20T01:43:28;5.30;99.90
24836;DHT22;12915;57.650;12.044;2023-12-20T01:45:58;5.30;99.90
24836;DHT22;12915;57.650;12.044;2023-12-20T01:48:26;5.00;99.90
24836;DHT22;12915;57.650;12.044;2023-12-20T01:50:53;5.00;99.90
24836;DHT22;12915;57.650;12.044;2023-12-20T01:53:33;5.00;99.90
24836;DHT22;12915;57.650;12.044;2023-12-20T01:55:59;5.20;99.90
24836;DHT22;12915;57.650;12.044;2023-12-20T01:58:26;5.10;99.90
24836;DHT22;12915;57.650;12.044;2023-12-20T02:00:52;5.20;99.90
24836;DHT22;12915;57.650;12.044;2023-12-20T02:03:18;5.20;99.90
24836;DHT22;12915;57.650;12.044;2023-12-20T02:05:44;5.20;99.90
24836;DHT22;12915;57.650;12.044;2023-12-20T02:08:11;5.30;99.90
24836;DHT22;12915;57.650;12.044;2023-12-20T02:10:36;5.30;99.90
24836;DHT22;12915;57.650;12.044;2023-12-20T02:13:03;5.20;99.90
24836;DHT22;12915;57.650;12.044;2023-12-20T02:15:29;5.20;99.90
24836;DHT22;12915;57.650;12.044;2023-12-20T02:17:56;5.10;99.90
24836;DHT22;12915;57.650;12.044;2023-12-20T02:20:22;5.10;99.90
24836;DHT22;12915;57.650;12.044;2023-12-20T02:22:48;5.10;99.90
24836;DHT22;12915;57.650;12.044;2023-12-20T02:25:13;5.20;99.90
24836;DHT22;12915;57.650;12.044;2023-12-20T02:27:40;5.10;99.90
24836;DHT22;12915;57.650;12.044;2023-12-20T02:30:06;5.30;99.90
24836;DHT22;12915;57.650;12.044;2023-12-20T02:32:32;5.30;99.90
24836;DHT22;12915;57.650;12.044;2023-12-20T02:34:57;5.20;99.90
24836;DHT22;12915;57.650;12.044;2023-12-20T02:37:23;5.10;99.90
24836;DHT22;12915;57.650;12.044;2023-12-20T02:39:50;5.20;99.90
24836;DHT22;12915;57.650;12.044;2023-12-20T02:42:15;5.20;99.90
24836;DHT22;12915;57.650;12.044;2023-12-20T02:44:41;5.10;99.90
24836;DHT22;12915;57.650;12.044;2023-12-20T02:47:07;5.20;99.90
24836;DHT22;12915;57.650;12.044;2023-12-20T02:49:32;5.30;99.90
24836;DHT22;12915;57.650;12.044;2023-12-20T02:51:58;5.40;99.90
24836;DHT22;12915;57.650;12.044;2023-12-20T02:54:23;5.30;99.90
24836;DHT22;12915;57.650;12.044;2023-12-20T02:56:49;5.20;99.90
24836;DHT22;12915;57.650;12.044;2023-12-20T02:59:15;5.20;99.90
24836;DHT22;12915;57.650;12.044;2023-12-20T03:01:44;5.30;99.90
24836;DHT22;12915;57.650;12.044;2023-12-20T03:04:10;5.40;99.90
24836;DHT22;12915;57.650;12.044;2023-12-20T03:06:37;5.30;99.90
24836;DHT22;12915;57.650;12.044;2023-12-20T03:09:02;5.40;99.90
24836;DHT22;12915;57.650;12.044;2023-12-20T03:11:28;5.40;99.90
24836;DHT22;12915;57.650;12.044;2023-12-20T03:13:57;5.30;99.90
24836;DHT22;12915;57.650;12.044;2023-12-20T03:16:23;5.40;99.90
24836;DHT22;12915;57.650;12.044;2023-12-20T03:18:48;5.50;99.90
24836;DHT22;12915;57.650;12.044;2023-12-20T03:21:14;5.50;99.90
24836;DHT22;12915;57.650;12.044;2023-12-20T03:23:40;5.40;99.90
24836;DHT22;12915;57.650;12.044;2023-12-20T03:26:09;5.50;99.90
24836;DHT22;12915;57.650;12.044;2023-12-20T03:28:36;5.60;99.90
24836;DHT22;12915;57.650;12.044;2023-12-20T03:31:02;5.40;99.90
24836;DHT22;12915;57.650;12.044;2023-12-20T03:33:29;5.20;99.90
24836;DHT22;12915;57.650;12.044;2023-12-20T03:35:55;5.20;99.90
24836;DHT22;12915;57.650;12.044;2023-12-20T03:38:21;5.10;99.90
24836;DHT22;12915;57.650;12.044;2023-12-20T03:40:49;5.10;99.90
24836;DHT22;12915;57.650;12.044;2023-12-20T03:43:15;5.30;99.90
24836;DHT22;12915;57.650;12.044;2023-12-20T03:45:42;5.60;99.90
24836;DHT22;12915;57.650;12.044;2023-12-20T03:48:07;5.60;99.90
24836;DHT22;12915;57.650;12.044;2023-12-20T03:50:34;5.60;99.90
24836;DHT22;12915;57.650;12.044;2023-12-20T03:53:00;5.70;99.90
24836;DHT22;12915;57.650;12.044;2023-12-20T03:55:26;5.70;99.90
24836;DHT22;12915;57.650;12.044;2023-12-20T03:57:52;5.90;99.90
24836;DHT22;12915;57.650;12.044;2023-12-20T04:00:17;6.10;99.90
24836;DHT22;12915;57.650;12.044;2023-12-20T04:02:43;6.20;99.90
24836;DHT22;12915;57.650;12.044;2023-12-20T04:05:09;6.10;99.90
24836;DHT22;12915;57.650;12.044;2023-12-20T04:07:35;6.00;99.90
24836;DHT22;12915;57.650;12.044;2023-12-20T04:10:01;5.90;99.90
24836;DHT22;12915;57.650;12.044;2023-12-20T04:12:28;5.70;99.90
24836;DHT22;12915;57.650;12.044;2023-12-20T04:14:53;5.60;99.90
24836;DHT22;12915;57.650;12.044;2023-12-20T04:17:20;5.60;99.90
24836;DHT22;12915;57.650;12.044;2023-12-20T04:19:45;5.60;99.90
24836;DHT22;12915;57.650;12.044;2023-12-20T04:22:11;5.70;99.90
24836;DHT22;12915;57.650;12.044;2023-12-20T04:24:37;5.50;99.90
24836;DHT22;12915;57.650;12.044;2023-12-20T04:27:02;5.20;99.90
24836;DHT22;12915;57.650;12.044;2023-12-20T04:29:28;5.10;99.90
24836;DHT22;12915;57.650;12.044;2023-12-20T04:31:54;5.20;99.90
24836;DHT22;12915;57.650;12.044;2023-12-20T04:34:20;5.10;99.90
24836;DHT22;12915;57.650;12.044;2023-12-20T04:36:46;5.50;99.90
24836;DHT22;12915;57.650;12.044;2023-12-20T04:39:13;6.00;99.90
24836;DHT22;12915;57.650;12.044;2023-12-20T04:41:41;6.20;99.90
24836;DHT22;12915;57.650;12.044;2023-12-20T04:44:07;5.90;99.90
24836;DHT22;12915;57.650;12.044;2023-12-20T04:46:32;5.70;99.90
24836;DHT22;12915;57.650;12.044;2023-12-20T04:48:58;5.60;99.90
24836;DHT22;12915;57.650;12.044;2023-12-20T04:51:24;5.50;99.90
24836;DHT22;12915;57.650;12.044;2023-12-20T04:53:49;5.40;99.90
24836;DHT22;12915;57.650;12.044;2023-12-20T04:56:15;5.40;99.90
24836;DHT22;12915;57.650;12.044;2023-12-20T04:58:41;5.40;99.90
24836;DHT22;12915;57.650;12.044;2023-12-20T05:01:08;5.50;99.90
24836;DHT22;12915;57.650;12.044;2023-12-20T05:03:34;5.40;99.90
24836;DHT22;12915;57.650;12.044;2023-12-20T05:06:00;5.50;99.90
24836;DHT22;12915;57.650;12.044;2023-12-20T05:08:26;5.50;99.90
24836;DHT22;12915;57.650;12.044;2023-12-20T05:10:54;5.40;99.90
24836;DHT22;12915;57.650;12.044;2023-12-20T05:13:20;5.50;99.90
24836;DHT22;12915;57.650;12.044;2023-12-20T05:15:46;5.30;99.90
24836;DHT22;12915;57.650;12.044;2023-12-20T05:18:12;5.40;99.90
24836;DHT22;12915;57.650;12.044;2023-12-20T05:20:38;5.40;99.90
24836;DHT22;12915;57.650;12.044;2023-12-20T05:23:04;5.30;99.90
24836;DHT22;12915;57.650;12.044;2023-12-20T05:25:29;5.40;99.90
24836;DHT22;12915;57.650;12.044;2023-12-20T05:27:55;5.30;99.90
24836;DHT22;12915;57.650;12.044;2023-12-20T05:30:21;5.20;99.90
24836;DHT22;12915;57.650;12.044;2023-12-20T05:32:47;5.20;99.90
24836;DHT22;12915;57.650;12.044;2023-12-20T05:35:13;5.10;99.90
24836;DHT22;12915;57.650;12.044;2023-12-20T05:37:39;5.20;99.90
24836;DHT22;12915;57.650;12.044;2023-12-20T05:40:05;5.20;99.90
24836;DHT22;12915;57.650;12.044;2023-12-20T05:42:31;5.30;99.90
24836;DHT22;12915;57.650;12.044;2023-12-20T05:44:56;5.60;99.90
24836;DHT22;12915;57.650;12.044;2023-12-20T05:47:22;5.50;99.90
24836;DHT22;12915;57.650;12.044;2023-12-20T05:49:48;5.30;99.90
24836;DHT22;12915;57.650;12.044;2023-12-20T05:52:13;5.30;99.90
24836;DHT22;12915;57.650;12.044;2023-12-20T05:54:40;5.20;99.90
24836;DHT22;12915;57.650;12.044;2023-12-20T05:57:08;5.30;99.90
24836;DHT22;12915;57.650;12.044;2023-12-20T05:59:33;5.20;99.90
24836;DHT22;12915;57.650;12.044;2023-12-20T06:01:59;5.40;99.90
24836;DHT22;12915;57.650;12.044;2023-12-20T06:04:24;5.70;99.90
24836;DHT22;12915;57.650;12.044;2023-12-20T06:06:50;5.70;99.90
24836;DHT22;12915;57.650;12.044;2023-12-20T06:09:15;5.60;99.90
24836;DHT22;12915;57.650;12.044;2023-12-20T06:11:41;5.80;99.90
24836;DHT22;12915;57.650;12.044;2023-12-20T06:14:07;5.70;99.90
24836;DHT22;12915;57.650;12.044;2023-12-20T06:16:32;5.50;99.90
24836;DHT22;12915;57.650;12.044;2023-12-20T06:18:58;5.50;99.90
24836;DHT22;12915;57.650;12.044;2023-12-20T06:21:26;5.50;99.90
24836;DHT22;12915;57.650;12.044;2023-12-20T06:23:52;5.60;99.90
24836;DHT22;12915;57.650;12.044;2023-12-20T06:26:17;5.80;99.90
24836;DHT22;12915;57.650;12.044;2023-12-20T06:28:43;5.80;99.90
24836;DHT22;12915;57.650;12.044;2023-12-20T06:31:09;5.80;99.90
24836;DHT22;12915;57.650;12.044;2023-12-20T06:33:34;5.90;99.90
24836;DHT22;12915;57.650;12.044;2023-12-20T06:36:00;6.00;99.90
24836;DHT22;12915;57.650;12.044;2023-12-20T06:38:26;5.90;99.90
24836;DHT22;12915;57.650;12.044;2023-12-20T06:40:52;6.10;99.90
24836;DHT22;12915;57.650;12.044;2023-12-20T06:43:17;5.90;99.90
24836;DHT22;12915;57.650;12.044;2023-12-20T06:45:43;6.00;99.90
24836;DHT22;12915;57.650;12.044;2023-12-20T06:48:09;6.00;99.90
24836;DHT22;12915;57.650;12.044;2023-12-20T06:50:36;5.90;99.90
24836;DHT22;12915;57.650;12.044;2023-12-20T06:53:05;5.80;99.90
24836;DHT22;12915;57.650;12.044;2023-12-20T06:55:33;5.90;99.90
24836;DHT22;12915;57.650;12.044;2023-12-20T06:58:00;5.80;99.90
24836;DHT22;12915;57.650;12.044;2023-12-20T07:00:25;5.50;99.90
24836;DHT22;12915;57.650;12.044;2023-12-20T07:02:51;5.30;99.90
24836;DHT22;12915;57.650;12.044;2023-12-20T07:05:17;5.30;99.90
24836;DHT22;12915;57.650;12.044;2023-12-20T07:07:45;5.30;99.90
24836;DHT22;12915;57.650;12.044;2023-12-20T07:10:12;5.20;99.90
24836;DHT22;12915;57.650;12.044;2023-12-20T07:12:37;5.30;99.90
24836;DHT22;12915;57.650;12.044;2023-12-20T07:15:03;5.30;99.90
24836;DHT22;12915;57.650;12.044;2023-12-20T07:17:30;5.40;99.90
24836;DHT22;12915;57.650;12.044;2023-12-20T07:19:58;5.60;99.90
24836;DHT22;12915;57.650;12.044;2023-12-20T07:22:24;5.80;99.90
24836;DHT22;12915;57.650;12.044;2023-12-20T07:24:54;5.70;99.90
24836;DHT22;12915;57.650;12.044;2023-12-20T07:27:20;5.60;99.90
24836;DHT22;12915;57.650;12.044;2023-12-20T07:29:45;5.50;99.90
24836;DHT22;12915;57.650;12.044;2023-12-20T07:32:11;5.40;99.90
24836;DHT22;12915;57.650;12.044;2023-12-20T07:34:36;5.40;99.90
24836;DHT22;12915;57.650;12.044;2023-12-20T07:37:02;5.30;99.90
24836;DHT22;12915;57.650;12.044;2023-12-20T07:39:28;5.30;99.90
24836;DHT22;12915;57.650;12.044;2023-12-20T07:41:53;5.30;99.90
24836;DHT22;12915;57.650;12.044;2023-12-20T07:44:19;5.20;99.90
24836;DHT22;12915;57.650;12.044;2023-12-20T07:46:44;5.10;99.90
24836;DHT22;12915;57.650;12.044;2023-12-20T07:49:10;5.30;99.90
24836;DHT22;12915;57.650;12.044;2023-12-20T07:51:36;5.50;99.90
24836;DHT22;12915;57.650;12.044;2023-12-20T07:54:02;5.60;99.90
24836;DHT22;12915;57.650;12.044;2023-12-20T07:56:28;5.80;99.90
24836;DHT22;12915;57.650;12.044;2023-12-20T07:58:54;5.70;99.90
24836;DHT22;12915;57.650;12.044;2023-12-20T08:01:20;5.70;99.90
24836;DHT22;12915;57.650;12.044;2023-12-20T08:03:46;5.40;99.90
24836;DHT22;12915;57.650;12.044;2023-12-20T08:06:11;5.00;99.90
24836;DHT22;12915;57.650;12.044;2023-12-20T08:08:37;5.00;99.90
24836;DHT22;12915;57.650;12.044;2023-12-20T08:11:03;4.90;99.90
24836;DHT22;12915;57.650;12.044;2023-12-20T08:13:28;5.00;99.90
24836;DHT22;12915;57.650;12.044;2023-12-20T08:15:56;4.90;99.90
24836;DHT22;12915;57.650;12.044;2023-12-20T08:18:22;4.90;99.90
24836;DHT22;12915;57.650;12.044;2023-12-20T08:20:48;4.90;99.90
24836;DHT22;12915;57.650;12.044;2023-12-20T08:23:15;4.90;99.90
24836;DHT22;12915;57.650;12.044;2023-12-20T08:25:40;5.00;99.90
24836;DHT22;12915;57.650;12.044;2023-12-20T08:28:06;4.90;99.90
24836;DHT22;12915;57.650;12.044;2023-12-20T08:30:32;5.10;99.90
24836;DHT22;12915;57.650;12.044;2023-12-20T08:33:00;5.10;99.90
24836;DHT22;12915;57.650;12.044;2023-12-20T08:35:26;5.00;99.90
24836;DHT22;12915;57.650;12.044;2023-12-20T08:37:52;5.00;99.90
24836;DHT22;12915;57.650;12.044;2023-12-20T08:40:19;4.90;99.90
24836;DHT22;12915;57.650;12.044;2023-12-20T08:42:45;5.10;99.90
24836;DHT22;12915;57.650;12.044;2023-12-20T08:45:11;5.10;99.90
24836;DHT22;12915;57.650;12.044;2023-12-20T08:47:37;5.30;99.90
24836;DHT22;12915;57.650;12.044;2023-12-20T08:50:03;5.50;99.90
24836;DHT22;12915;57.650;12.044;2023-12-20T08:52:29;5.40;99.90
24836;DHT22;12915;57.650;12.044;2023-12-20T08:54:55;5.30;99.90
24836;DHT22;12915;57.650;12.044;2023-12-20T08:57:21;5.40;99.90
24836;DHT22;12915;57.650;12.044;2023-12-20T08:59:49;5.30;99.90
24836;DHT22;12915;57.650;12.044;2023-12-20T09:02:15;5.10;99.90
24836;DHT22;12915;57.650;12.044;2023-12-20T09:04:41;5.10;99.90
24836;DHT22;12915;57.650;12.044;2023-12-20T09:07:07;5.20;99.90
24836;DHT22;12915;57.650;12.044;2023-12-20T09:09:33;5.20;99.90
24836;DHT22;12915;57.650;12.044;2023-12-20T09:11:59;5.40;99.90
24836;DHT22;12915;57.650;12.044;2023-12-20T09:14:24;5.60;99.90
24836;DHT22;12915;57.650;12.044;2023-12-20T09:16:50;5.70;99.90
24836;DHT22;12915;57.650;12.044;2023-12-20T09:19:17;5.60;99.90
24836;DHT22;12915;57.650;12.044;2023-12-20T09:21:43;5.50;99.90
24836;DHT22;12915;57.650;12.044;2023-12-20T09:24:08;5.60;99.90
24836;DHT22;12915;57.650;12.044;2023-12-20T09:26:34;5.70;99.90
24836;DHT22;12915;57.650;12.044;2023-12-20T09:29:00;5.70;99.90
24836;DHT22;12915;57.650;12.044;2023-12-20T09:31:26;5.60;99.90
24836;DHT22;12915;57.650;12.044;2023-12-20T09:33:52;5.60;99.90
24836;DHT22;12915;57.650;12.044;2023-12-20T09:36:17;5.70;99.90
24836;DHT22;12915;57.650;12.044;2023-12-20T09:38:43;5.50;99.90
24836;DHT22;12915;57.650;12.044;2023-12-20T09:41:09;5.50;99.90
24836;DHT22;12915;57.650;12.044;2023-12-20T09:43:37;5.50;99.90
24836;DHT22;12915;57.650;12.044;2023-12-20T09:46:05;5.50;99.90
24836;DHT22;12915;57.650;12.044;2023-12-20T09:48:33;5.50;99.90
24836;DHT22;12915;57.650;12.044;2023-12-20T09:50:59;5.60;99.90
24836;DHT22;12915;57.650;12.044;2023-12-20T09:53:25;5.60;99.90
24836;DHT22;12915;57.650;12.044;2023-12-20T09:55:58;5.70;99.90
24836;DHT22;12915;57.650;12.044;2023-12-20T09:58:25;5.70;99.90
24836;DHT22;12915;57.650;12.044;2023-12-20T10:00:51;5.80;99.90
24836;DHT22;12915;57.650;12.044;2023-12-20T10:03:22;5.90;99.90
24836;DHT22;12915;57.650;12.044;2023-12-20T10:05:49;6.20;99.90
24836;DHT22;12915;57.650;12.044;2023-12-20T10:08:17;6.30;99.90
24836;DHT22;12915;57.650;12.044;2023-12-20T10:10:46;6.30;99.90
24836;DHT22;12915;57.650;12.044;2023-12-20T10:13:12;6.20;99.90
24836;DHT22;12915;57.650;12.044;2023-12-20T10:15:38;6.20;99.90
24836;DHT22;12915;57.650;12.044;2023-12-20T10:18:05;6.00;99.90
24836;DHT22;12915;57.650;12.044;2023-12-20T10:20:31;6.00;99.90
24836;DHT22;12915;57.650;12.044;2023-12-20T10:22:58;6.20;99.90
24836;DHT22;12915;57.650;12.044;2023-12-20T10:25:25;6.10;99.90
24836;DHT22;12915;57.650;12.044;2023-12-20T10:28:11;6.20;99.90
24836;DHT22;12915;57.650;12.044;2023-12-20T10:30:37;6.30;99.90
24836;DHT22;12915;57.650;12.044;2023-12-20T10:33:03;6.20;99.90
24836;DHT22;12915;57.650;12.044;2023-12-20T10:35:31;6.30;99.90
24836;DHT22;12915;57.650;12.044;2023-12-20T10:37:56;6.50;99.90
24836;DHT22;12915;57.650;12.044;2023-12-20T10:40:22;6.40;99.90
24836;DHT22;12915;57.650;12.044;2023-12-20T10:42:49;6.00;99.90
24836;DHT22;12915;57.650;12.044;2023-12-20T10:45:15;5.90;99.90
24836;DHT22;12915;57.650;12.044;2023-12-20T10:47:45;6.00;99.90
24836;DHT22;12915;57.650;12.044;2023-12-20T10:50:11;6.10;99.90
24836;DHT22;12915;57.650;12.044;2023-12-20T10:52:37;6.00;99.90
24836;DHT22;12915;57.650;12.044;2023-12-20T10:55:04;6.20;99.90
24836;DHT22;12915;57.650;12.044;2023-12-20T10:57:30;6.30;99.90
24836;DHT22;12915;57.650;12.044;2023-12-20T11:00:00;6.20;99.90
24836;DHT22;12915;57.650;12.044;2023-12-20T11:02:31;5.90;99.90
24836;DHT22;12915;57.650;12.044;2023-12-20T11:05:13;5.90;99.90
24836;DHT22;12915;57.650;12.044;2023-12-20T11:07:50;6.10;99.90
24836;DHT22;12915;57.650;12.044;2023-12-20T11:10:31;6.40;99.90
24836;DHT22;12915;57.650;12.044;2023-12-20T11:13:16;6.60;99.90
24836;DHT22;12915;57.650;12.044;2023-12-20T11:15:43;6.60;99.90
24836;DHT22;12915;57.650;12.044;2023-12-20T11:18:09;6.40;99.90
24836;DHT22;12915;57.650;12.044;2023-12-20T11:20:41;6.50;99.90
24836;DHT22;12915;57.650;12.044;2023-12-20T11:23:08;6.60;99.90
24836;DHT22;12915;57.650;12.044;2023-12-20T11:25:56;6.70;99.90
24836;DHT22;12915;57.650;12.044;2023-12-20T11:28:25;6.40;99.90
24836;DHT22;12915;57.650;12.044;2023-12-20T11:30:52;6.40;99.90
24836;DHT22;12915;57.650;12.044;2023-12-20T11:33:25;6.40;99.90
24836;DHT22;12915;57.650;12.044;2023-12-20T11:35:51;6.20;99.90
24836;DHT22;12915;57.650;12.044;2023-12-20T11:38:20;6.10;99.90
24836;DHT22;12915;57.650;12.044;2023-12-20T11:40:48;6.30;99.90
24836;DHT22;12915;57.650;12.044;2023-12-20T11:43:34;6.70;99.90
24836;DHT22;12915;57.650;12.044;2023-12-20T11:46:08;6.80;99.90
24836;DHT22;12915;57.650;12.044;2023-12-20T11:48:37;7.10;99.90
24836;DHT22;12915;57.650;12.044;2023-12-20T11:51:08;6.90;99.90
24836;DHT22;12915;57.650;12.044;2023-12-20T11:53:34;7.20;99.90
24836;DHT22;12915;57.650;12.044;2023-12-20T11:56:00;7.40;99.90
24836;DHT22;12915;57.650;12.044;2023-12-20T11:58:28;7.30;99.90
24836;DHT22;12915;57.650;12.044;2023-12-20T12:00:55;7.30;99.90
24836;DHT22;12915;57.650;12.044;2023-12-20T12:03:21;7.40;99.90
24836;DHT22;12915;57.650;12.044;2023-12-20T12:05:49;7.40;99.90
24836;DHT22;12915;57.650;12.044;2023-12-20T12:08:16;7.20;99.90
24836;DHT22;12915;57.650;12.044;2023-12-20T12:10:43;7.30;99.90
24836;DHT22;12915;57.650;12.044;2023-12-20T12:13:08;7.30;99.90
24836;DHT22;12915;57.650;12.044;2023-12-20T12:15:35;7.10;99.90
24836;DHT22;12915;57.650;12.044;2023-12-20T12:18:01;7.30;99.90
24836;DHT22;12915;57.650;12.044;2023-12-20T12:20:27;7.40;99.90
24836;DHT22;12915;57.650;12.044;2023-12-20T12:23:03;7.50;99.90
24836;DHT22;12915;57.650;12.044;2023-12-20T12:25:30;7.60;99.90
24836;DHT22;12915;57.650;12.044;2023-12-20T12:27:57;7.70;99.90
24836;DHT22;12915;57.650;12.044;2023-12-20T12:30:23;7.70;99.90
24836;DHT22;12915;57.650;12.044;2023-12-20T12:32:48;7.60;99.90
24836;DHT22;12915;57.650;12.044;2023-12-20T12:35:17;7.60;99.90
24836;DHT22;12915;57.650;12.044;2023-12-20T12:37:43;7.50;99.90
24836;DHT22;12915;57.650;12.044;2023-12-20T12:40:16;7.30;99.90
24836;DHT22;12915;57.650;12.044;2023-12-20T12:42:44;7.20;99.90
24836;DHT22;12915;57.650;12.044;2023-12-20T12:45:10;7.60;99.90
24836;DHT22;12915;57.650;12.044;2023-12-20T12:47:37;7.50;99.90
24836;DHT22;12915;57.650;12.044;2023-12-20T12:50:03;7.50;99.90
24836;DHT22;12915;57.650;12.044;2023-12-20T12:52:30;7.50;99.90
24836;DHT22;12915;57.650;12.044;2023-12-20T12:54:56;7.40;99.90
24836;DHT22;12915;57.650;12.044;2023-12-20T12:57:22;7.30;99.90
24836;DHT22;12915;57.650;12.044;2023-12-20T12:59:48;7.20;99.90
24836;DHT22;12915;57.650;12.044;2023-12-20T13:02:14;7.20;99.90
24836;DHT22;12915;57.650;12.044;2023-12-20T13:04:43;7.20;99.90
24836;DHT22;12915;57.650;12.044;2023-12-20T13:07:09;7.10;99.90
24836;DHT22;12915;57.650;12.044;2023-12-20T13:09:38;7.40;99.90
24836;DHT22;12915;57.650;12.044;2023-12-20T13:12:05;7.70;99.90
24836;DHT22;12915;57.650;12.044;2023-12-20T13:14:35;7.30;99.90
24836;DHT22;12915;57.650;12.044;2023-12-20T13:17:03;7.20;99.90
24836;DHT22;12915;57.650;12.044;2023-12-20T13:19:29;7.30;99.90
24836;DHT22;12915;57.650;12.044;2023-12-20T13:21:56;7.10;99.90
24836;DHT22;12915;57.650;12.044;2023-12-20T13:24:21;6.80;99.90
24836;DHT22;12915;57.650;12.044;2023-12-20T13:26:47;6.60;99.90
24836;DHT22;12915;57.650;12.044;2023-12-20T13:29:12;6.70;99.90
24836;DHT22;12915;57.650;12.044;2023-12-20T13:31:38;6.90;99.90
24836;DHT22;12915;57.650;12.044;2023-12-20T13:34:06;7.00;99.90
24836;DHT22;12915;57.650;12.044;2023-12-20T13:36:31;6.90;99.90
24836;DHT22;12915;57.650;12.044;2023-12-20T13:38:57;6.90;99.90
24836;DHT22;12915;57.650;12.044;2023-12-20T13:41:22;7.30;99.90
24836;DHT22;12915;57.650;12.044;2023-12-20T13:43:48;7.30;99.90
24836;DHT22;12915;57.650;12.044;2023-12-20T13:46:14;6.90;99.90
24836;DHT22;12915;57.650;12.044;2023-12-20T13:48:40;6.70;99.90
24836;DHT22;12915;57.650;12.044;2023-12-20T13:51:05;6.80;99.90
24836;DHT22;12915;57.650;12.044;2023-12-20T13:53:31;6.70;99.90
24836;DHT22;12915;57.650;12.044;2023-12-20T13:55:57;6.90;99.90
24836;DHT22;12915;57.650;12.044;2023-12-20T13:58:23;7.00;99.90
24836;DHT22;12915;57.650;12.044;2023-12-20T14:00:49;7.00;99.90
24836;DHT22;12915;57.650;12.044;2023-12-20T14:03:14;7.40;99.90
24836;DHT22;12915;57.650;12.044;2023-12-20T14:05:40;7.70;99.90
24836;DHT22;12915;57.650;12.044;2023-12-20T14:08:06;7.40;99.90
24836;DHT22;12915;57.650;12.044;2023-12-20T14:10:32;7.50;99.90
24836;DHT22;12915;57.650;12.044;2023-12-20T14:12:58;7.60;99.90
24836;DHT22;12915;57.650;12.044;2023-12-20T14:15:24;7.20;99.90
24836;DHT22;12915;57.650;12.044;2023-12-20T14:17:51;7.10;99.90
24836;DHT22;12915;57.650;12.044;2023-12-20T14:20:16;7.30;99.90
24836;DHT22;12915;57.650;12.044;2023-12-20T14:22:43;7.30;99.90
24836;DHT22;12915;57.650;12.044;2023-12-20T14:25:13;7.40;99.90
24836;DHT22;12915;57.650;12.044;2023-12-20T14:27:40;7.20;99.90
24836;DHT22;12915;57.650;12.044;2023-12-20T14:30:06;7.00;99.90
24836;DHT22;12915;57.650;12.044;2023-12-20T14:32:34;6.80;99.90
24836;DHT22;12915;57.650;12.044;2023-12-20T14:35:04;6.60;99.90
24836;DHT22;12915;57.650;12.044;2023-12-20T14:37:30;6.50;99.90
24836;DHT22;12915;57.650;12.044;2023-12-20T14:39:56;6.40;99.90
24836;DHT22;12915;57.650;12.044;2023-12-20T14:42:22;6.50;99.90
24836;DHT22;12915;57.650;12.044;2023-12-20T14:44:48;6.80;99.90
24836;DHT22;12915;57.650;12.044;2023-12-20T14:47:13;6.50;99.90
24836;DHT22;12915;57.650;12.044;2023-12-20T14:49:40;6.50;99.90
24836;DHT22;12915;57.650;12.044;2023-12-20T14:52:07;6.40;99.90
24836;DHT22;12915;57.650;12.044;2023-12-20T14:54:33;6.40;99.90
24836;DHT22;12915;57.650;12.044;2023-12-20T14:56:59;6.30;99.90
24836;DHT22;12915;57.650;12.044;2023-12-20T14:59:25;6.20;99.90
24836;DHT22;12915;57.650;12.044;2023-12-20T15:01:50;6.00;99.90
24836;DHT22;12915;57.650;12.044;2023-12-20T15:04:16;6.10;99.90
24836;DHT22;12915;57.650;12.044;2023-12-20T15:06:42;6.20;99.90
24836;DHT22;12915;57.650;12.044;2023-12-20T15:09:08;6.20;99.90
24836;DHT22;12915;57.650;12.044;2023-12-20T15:11:34;6.30;99.90
24836;DHT22;12915;57.650;12.044;2023-12-20T15:14:01;6.30;99.90
24836;DHT22;12915;57.650;12.044;2023-12-20T15:16:26;6.30;99.90
24836;DHT22;12915;57.650;12.044;2023-12-20T15:18:53;6.40;99.90
24836;DHT22;12915;57.650;12.044;2023-12-20T15:21:19;6.40;99.90
24836;DHT22;12915;57.650;12.044;2023-12-20T15:23:45;6.20;99.90
24836;DHT22;12915;57.650;12.044;2023-12-20T15:26:21;6.10;99.90